Latest METARs, TAFs and NOTAMs for MMPR


---------------------------------------------------------------------------
	(OBSERVATIONS)
MMPR 180341Z 11003KT 10SM  SCT015 BKN020CB OVC080 28/23 A2997
     RMK 8/37/=
MMPR 180242Z 10003KT 10SM  SCT020CB BKN080 OVC270 28/21 A2997
     RMK SLP144 52011 912 8/377 LWR ST 2-QUAD=
MMPR 180142Z 11002KT 15SM  SCT025CB BKN120 OVC270 29/20 A2995
     RMK 8/377=
---------------------------------------------------------------------------
	(TERMINAL AREA FORECAST)
MMPR 180412Z 1806/1912 34005KT P6SM SCT020 BKN080 TX32/1819Z
    TN23/1812Z
    TEMPO 1806/1810 5SM TSRA BKN020CB
    FM181800 23010KT P6SM SCT025CB BKN100 OVC250
    PROB40 1821/1901 5SM -RA BKN020CB
    FM190600 34005KT P6SM SCT020 SCT100 BKN250=
---------------------------------------------------------------------------
	(NOTAMS)


MMPR A2174/18 CD OPR IN FREQ 121.9 MHZ. 1500/2200 26 TO 30 APR
    DLY 1500/2200 3MAY TO 27 OCT ONLY DAYS THU,FRI,SAT AND SUN,
    26 APR 21:08 2018 UNTIL 27 OCT 22:00 2018. CREATED: 26 APR
    21:13 2018

MMPR A2673/18 CHANGED ALT AWY UJ-14 TO 7000 FT BTN D-15 TIL D-20
    RDL 293 DEG FM VOR/DME/PVR PUBLISHED IN CHART MMPR-IAC-2
    AMDT AIRAC 06/18 DATE 24-MAY-2018 OF MEXICO AIP. 24 MAY 12:00
    2018 UNTIL PERM. CREATED: 21 MAY 16:15 2018

MMPR A2674/18 ALT IS ESTABLISHED AWY UJ-48 TO 70O0 FT BTN D-17
    TIL D-25 RDL 290 DEG FM VOR/DME/PVR IN CHART MMPR-IAC-5 AMDT
    AIRAC 06/2018 DATE 24-MAY-2018 OF MEXICO AIP. 24 MAY 12:00
    2018 UNTIL PERM. CREATED: 21 MAY 16:34 2018

---------------------------------------------------------------------------